Terminal Aerodrome Forecast
Issued by NWS

Home | Current Version | Previous Version | Graphics & Text | Print | Product List | Glossary On
Versions: 1 2 3 4 5 6 7 8 9 10 11 12 13 14 15
099
FTUS43 KMPX 231955 AAA
TAFAXN
TAF AMD
KAXN 231955Z 2320/2418 23015G23KT P6SM VCSH SCT030 BKN045
     FM232300 23008KT P6SM SCT050 BKN200
     FM240600 26003KT P6SM SCT100=

USA.gov is the U.S. government's official web portal to all federal, state and local government web resources and services.